Shawnee Mission, KS

7:16 AM CDT on August 25, 2016 (GMT -0500)
KKSSTANL1 | | Change Station
Active Advisory: Areal Flood Advisory Active Notice: Local Storm Report

Elev 1090 ft 38.86 °N, 94.68 °W | Updated 55 seconds ago

Fog
Fog
69.0 °F
Feels Like 69.0 °F
N
0.0
Wind Variable Wind from WSW
Gusts 0.0 mph

Today
High -- | Low -- °F
--% Chance of Precip.
Yesterday
High -- | Low -- °F
Precip. -- in
Pressure 30.00 in
Visibility 0.2 miles
Clouds
Dew Point 69 °F
Humidity 100%
Rainfall 0.33 in
Snow Depth Not available.
6:41 AM 7:58 PM
Last Quarter, 46% visible
METAR KOJC 251153Z 15005KT M1/4SM FG VV001 20/20 A3003 RMK AO2 LTG DSNT NW SLP158 60030 70259 T02000200 10206 20200 55004 $
Pressure 30.00 in
Visibility 0.2 miles
Clouds
Dew Point 69 °F
Humidity 100%
Rainfall 0.33 in
Snow Depth Not available.
6:41 AM 7:58 PM
Last Quarter, 46% visible
METAR KOJC 251153Z 15005KT M1/4SM FG VV001 20/20 A3003 RMK AO2 LTG DSNT NW SLP158 60030 70259 T02000200 10206 20200 55004 $

10-Day Weather Forecast

Almanac

Astronomy

Aug. 25, 2016 Rise Set
Actual Time
Civil Twilight
Nautical Twilight
Astronomical Twilight
Moon
Length of Visible Light
Length of Day
Tomorrow will be .
, % of the Moon is Illuminated

Today's Extremes

State Highs State Lows

Community

WunderPhotos

Upload Photos

1,934,833 photos uploaded!

WunderBlog® & News

Nearby

Air Quality

  Air Quality AQ Index Pollutant
Not available.

Snow Depth

Station Depth Elevation

Earthquake Activity

City Distance Mag. Time & Date
Minimum magnitude displayed is 2.5.

Coastal Water Temperatures

Place Temperature

Stations

Nearby Weather Stations

Station Location Temp. Windchill Dew Point Humidity Wind Precip. Elev Updated Type
                   

Watches & Warnings

Areal Flood Advisory
Issued: 4:57 AM CDT Aug. 25, 2016 – National Weather Service

The National Weather Service in Pleasant Hill has issued a

* Urban and Small Stream Flood Advisory for...
Johnson County in east central Kansas...
Jackson County in west central Missouri...

* until 1100 am CDT Thursday

* at 455 am CDT... Doppler radar indicated heavy rain due to
thunderstorms. This will cause Urban and Small Stream flooding in
the advisory area. 3 to 5 inches inches of rain have fallen and
an additional 1 inch is possible over the next 6 hours.

* Some locations that will experience flooding include...
Kansas City... Overland Park... Olathe... Independence...
Lee's Summit... Shawnee... Blue Springs... Lenexa... Leawood...
Raytown... Grandview... Prairie Village... Gardner... Grain Valley...
Merriam... mission... Oak Grove... De Soto...
Fairway and Mission Hills.

Precautionary/preparedness actions...

Turn around... don't drown when encountering flooded roads. Most flood
deaths occur in vehicles.


Lat... Lon 3891 9505 3905 9464 3904 9461 3906 9460
      3918 9422 3897 9411 3895 9412 3885 9458
      3885 9461 3884 9461 3874 9506


Leighton